El Mirage, AZ

10:21 AM MST on December 28, 2014 (GMT -0700)
Sun Dial I | Change Station
CLOSE
Current Station
Personal Weather Station
Location: El Mirage, AZ
Elevation: 1115 ft
Nearby Weather Stations

Elev 1115 ft 33.60 °N, 112.32 °W | Updated 51 seconds ago

Clear
Clear
45.9 °F
Feels Like 46 °F
N
2.7
Wind Variable Wind from West
Gusts 2.7 mph

Today
High -- | Low -- °F
--% Chance of Precip.
Yesterday
High -- | Low -- °F
Precip. -- in
7:32 AM 5:29 PM
Waxing Crescent, 49% visible
Pressure 30.30 in
Visibility 20.0 miles
Clouds Scattered Clouds 20000 ft
Mostly Cloudy 25000 ft
Windchill 46 °F
Dew Point 22 °F
Humidity 39%
Rainfall 0.00 in
Snow Depth Not available.
UV 1 out of 12
Pollen 5.40 out of 12
Air Quality Not available.
Flu Activity Not available.
METAR KGEU 281647Z 00000KT 20SM SCT200 BKN250 16/M05 A3030

More Conditions Fewer Conditions

Pressure 30.30 in
Visibility 20.0 miles
Clouds Scattered Clouds 20000 ft
Mostly Cloudy 25000 ft
Windchill 46 °F
Dew Point 22 °F
Humidity 39%
Rainfall 0.00 in
Snow Depth Not available.
UV 1 out of 12
Pollen 5.40 out of 12
Air Quality Not available.
Flu Activity Not available.
METAR KGEU 281647Z 00000KT 20SM SCT200 BKN250 16/M05 A3030

More Conditions Fewer Conditions

10-Day Weather Forecast

Almanac

Astronomy

Dec. 28, 2014 Rise Set
Actual Time
Civil Twilight
Nautical Twilight
Astronomical Twilight
Moon
Length of Visible Light
Length of Day
Tomorrow will be .
, % of the Moon is Illuminated

Today's Extremes

State Highs State Lows

Community

WunderPhotos

Upload Photos

1,781,360 photos uploaded!

WunderBlogs® & News

Nearby

Air Quality

  Air Quality AQ Index Pollutant
Not available.

Snow Depth

Station Depth Elevation

Earthquake Activity

City Distance Mag. Time & Date
Minimum magnitude displayed is 2.5.

Coastal Water Temperatures

Place Temperature

Nearby Weather Stations